createdAt,value
2022-09-23T00:02:52.158Z,7.60
2022-09-23T00:07:57.246Z,7.60
2022-09-23T00:12:59.455Z,7.68
2022-09-23T00:18:01.130Z,7.70
2022-09-23T00:23:03.191Z,7.62
2022-09-23T00:28:04.998Z,7.60
2022-09-23T00:33:06.764Z,7.48
2022-09-23T00:38:08.404Z,7.50
2022-09-23T00:43:14.641Z,7.50
2022-09-23T00:48:20.759Z,7.60
2022-09-23T00:53:26.264Z,7.60
2022-09-23T00:58:34.290Z,7.50
2022-09-23T01:03:36.224Z,7.40
2022-09-23T01:08:39.330Z,7.40
2022-09-23T01:14:15.775Z,7.50
2022-09-23T01:19:35.930Z,7.60
2022-09-23T01:25:13.044Z,7.60
2022-09-23T01:30:33.272Z,7.50
2022-09-23T01:36:10.353Z,7.50
2022-09-23T01:41:43.552Z,7.50
2022-09-23T01:46:55.165Z,7.60
2022-09-23T01:52:07.480Z,7.60
2022-09-23T01:57:43.048Z,7.60
2022-09-23T02:02:54.237Z,7.56
2022-09-23T02:08:10.455Z,7.48
2022-09-23T02:13:40.235Z,7.40
2022-09-23T02:18:53.020Z,7.50
2022-09-23T02:24:05.870Z,7.50
2022-09-23T02:29:37.452Z,7.50
2022-09-23T02:35:17.542Z,7.50
2022-09-23T02:40:41.453Z,7.40
2022-09-23T02:45:43.651Z,7.40
2022-09-23T02:50:47.298Z,7.30
2022-09-23T02:55:49.693Z,7.38
2022-09-23T03:01:22.129Z,7.40
2022-09-23T03:06:43.893Z,7.38
2022-09-23T03:11:59.429Z,7.30
2022-09-23T03:17:15.529Z,7.20
2022-09-23T03:22:43.423Z,7.12
2022-09-23T03:27:45.498Z,7.10
2022-09-23T03:32:49.233Z,7.10
2022-09-23T03:38:08.940Z,7.18
2022-09-23T03:43:13.460Z,7.18
2022-09-23T03:48:15.144Z,7.10
2022-09-23T03:53:20.688Z,7.00
2022-09-23T03:58:22.369Z,7.00
2022-09-23T04:03:28.856Z,6.92
2022-09-23T04:08:30.643Z,7.00
2022-09-23T04:13:32.602Z,6.90
2022-09-23T04:18:35.003Z,6.92
2022-09-23T04:23:36.774Z,6.90
2022-09-23T04:28:38.959Z,6.90
2022-09-23T04:33:40.969Z,6.90
2022-09-23T04:38:48.252Z,6.90
2022-09-23T04:43:50.011Z,7.00
2022-09-23T04:48:51.790Z,7.00
2022-09-23T04:53:55.331Z,7.00
2022-09-23T04:58:57.741Z,7.00
2022-09-23T05:04:04.650Z,7.00
2022-09-23T05:09:08.469Z,7.08
2022-09-23T05:14:10.600Z,7.08
2022-09-23T05:19:13.086Z,7.10
2022-09-23T05:24:16.294Z,7.20
2022-09-23T05:29:18.082Z,7.20
2022-09-23T05:34:19.864Z,7.10
2022-09-23T05:39:21.655Z,7.12
2022-09-23T05:44:23.404Z,7.20
2022-09-23T05:49:42.653Z,7.16
2022-09-23T05:54:46.909Z,7.30
2022-09-23T05:59:48.689Z,7.40
2022-09-23T06:04:50.375Z,7.54
2022-09-23T06:09:53.566Z,7.60
2022-09-23T06:14:55.237Z,7.70
2022-09-23T06:19:57.225Z,7.70
2022-09-23T06:24:59.097Z,7.70
2022-09-23T06:30:00.894Z,7.82
2022-09-23T06:35:03.072Z,7.98
2022-09-23T06:40:06.168Z,8.10
2022-09-23T06:45:12.553Z,8.10
2022-09-23T06:50:14.422Z,8.30
2022-09-23T06:55:16.195Z,8.40
2022-09-23T07:00:18.998Z,8.60
2022-09-23T07:05:21.953Z,8.78
2022-09-23T07:10:23.779Z,8.94
2022-09-23T07:15:25.549Z,9.10
2022-09-23T07:20:27.354Z,9.20
2022-09-23T07:25:29.626Z,9.30
2022-09-23T07:30:31.818Z,9.50
2022-09-23T07:35:34.337Z,9.60
2022-09-23T07:40:38.683Z,9.70
2022-09-23T07:45:43.168Z,9.94
2022-09-23T07:50:44.939Z,10.20
2022-09-23T07:55:55.404Z,10.30
2022-09-23T08:01:09.724Z,10.42
2022-09-23T08:06:13.573Z,10.70
2022-09-23T08:11:15.407Z,11.10
2022-09-23T08:16:17.233Z,11.40
2022-09-23T08:21:22.931Z,11.60
2022-09-23T08:26:25.623Z,11.60
2022-09-23T08:31:27.337Z,11.60
2022-09-23T08:36:30.728Z,11.60
2022-09-23T08:41:58.215Z,11.78
2022-09-23T08:47:40.889Z,11.90
2022-09-23T08:53:05.055Z,11.90
2022-09-23T08:58:43.976Z,12.00
2022-09-23T09:03:56.185Z,12.10
2022-09-23T09:09:02.581Z,12.30
2022-09-23T09:14:29.780Z,12.50
2022-09-23T09:20:02.824Z,12.50
2022-09-23T09:25:40.363Z,12.50
2022-09-23T09:30:48.391Z,12.60
2022-09-23T09:36:44.745Z,12.76
2022-09-23T09:41:51.733Z,12.80
2022-09-23T09:47:46.148Z,12.90
2022-09-23T09:52:48.480Z,13.02
2022-09-23T09:58:01.117Z,13.10
2022-09-23T10:03:22.647Z,13.32
2022-09-23T10:08:36.550Z,13.50
2022-09-23T10:13:38.276Z,13.66
2022-09-23T10:18:45.677Z,13.92
2022-09-23T10:23:58.228Z,14.32
2022-09-23T10:29:22.528Z,14.64
2022-09-23T10:34:28.481Z,14.60
2022-09-23T10:39:48.543Z,14.40
2022-09-23T10:45:23.679Z,14.20
2022-09-23T10:50:48.782Z,14.20
2022-09-23T10:56:08.705Z,14.30
2022-09-23T11:01:41.761Z,14.58
2022-09-23T11:07:25.551Z,14.88
2022-09-23T11:12:53.487Z,15.30
2022-09-23T11:18:16.898Z,15.48
2022-09-23T11:23:50.505Z,15.78
2022-09-23T11:29:20.572Z,15.70
2022-09-23T11:35:03.388Z,15.30
2022-09-23T11:40:13.182Z,15.00
2022-09-23T11:45:26.499Z,14.70
2022-09-23T11:50:39.960Z,14.60
2022-09-23T11:55:58.319Z,14.50
2022-09-23T12:01:22.236Z,14.36
2022-09-23T12:06:46.622Z,14.20
2022-09-23T12:12:42.322Z,14.20
2022-09-23T12:18:10.614Z,14.18
2022-09-23T12:23:43.212Z,14.20
2022-09-23T12:28:50.349Z,14.28
2022-09-23T12:33:53.909Z,14.36
2022-09-23T12:39:40.133Z,14.40
2022-09-23T12:44:46.522Z,14.40
2022-09-23T12:49:50.434Z,14.50
2022-09-23T12:54:58.056Z,14.50
2022-09-23T13:00:12.409Z,14.50
2022-09-23T13:05:44.713Z,14.52
2022-09-23T13:10:57.867Z,14.68
2022-09-23T13:16:20.754Z,14.70
2022-09-23T13:21:45.300Z,14.80
2022-09-23T13:26:53.475Z,14.90
2022-09-23T13:31:57.394Z,15.10
2022-09-23T13:37:22.225Z,15.20
2022-09-23T13:42:29.642Z,15.30
2022-09-23T13:47:35.519Z,15.30
2022-09-23T13:52:37.461Z,15.40
2022-09-23T13:57:39.258Z,15.52
2022-09-23T14:02:46.382Z,15.70
2022-09-23T14:07:53.355Z,15.90
2022-09-23T14:12:56.949Z,16.18
2022-09-23T14:18:07.839Z,16.32
2022-09-23T14:23:16.232Z,16.48
2022-09-23T14:28:22.497Z,16.44
2022-09-23T14:33:32.968Z,16.40
2022-09-23T14:38:50.941Z,16.30
2022-09-23T14:44:00.473Z,16.00
2022-09-23T14:49:10.453Z,15.70
2022-09-23T14:54:35.118Z,15.60
2022-09-23T14:59:37.343Z,15.50
2022-09-23T15:04:39.083Z,15.30
2022-09-23T15:09:43.617Z,15.30
2022-09-23T15:14:52.269Z,15.34
2022-09-23T15:20:00.221Z,15.40
2022-09-23T15:25:31.547Z,15.30
2022-09-23T15:30:36.069Z,15.30
2022-09-23T15:35:47.186Z,15.28
2022-09-23T15:40:49.567Z,15.30
2022-09-23T15:46:04.396Z,15.40
2022-09-23T15:51:09.296Z,15.50
2022-09-23T15:56:10.982Z,15.40
2022-09-23T16:01:36.076Z,15.40
2022-09-23T16:06:39.208Z,15.30
2022-09-23T16:11:49.826Z,15.20
2022-09-23T16:16:51.595Z,15.08
2022-09-23T16:21:53.536Z,14.90
2022-09-23T16:26:59.441Z,14.80
2022-09-23T16:32:02.719Z,14.70
2022-09-23T16:37:05.223Z,14.70
2022-09-23T16:42:07.019Z,14.70
2022-09-23T16:47:09.066Z,14.58
2022-09-23T16:52:11.561Z,14.50
2022-09-23T16:57:13.436Z,14.40
2022-09-23T17:02:34.269Z,14.30
2022-09-23T17:07:36.341Z,14.30
2022-09-23T17:12:38.254Z,14.20
2022-09-23T17:17:39.990Z,14.28
2022-09-23T17:22:42.605Z,14.20
2022-09-23T17:27:44.362Z,14.20
2022-09-23T17:32:46.852Z,14.10
2022-09-23T17:37:49.548Z,14.00
2022-09-23T17:42:55.126Z,14.00
2022-09-23T17:47:56.904Z,13.90
2022-09-23T17:53:00.097Z,13.70
2022-09-23T17:58:01.878Z,13.64
2022-09-23T18:03:03.653Z,13.60
2022-09-23T18:08:06.207Z,13.40
2022-09-23T18:13:08.325Z,13.30
2022-09-23T18:18:10.302Z,13.26
2022-09-23T18:23:12.387Z,13.20
2022-09-23T18:28:14.160Z,13.10
2022-09-23T18:33:15.937Z,13.00
2022-09-23T18:38:18.734Z,12.90
2022-09-23T18:43:25.602Z,12.90
2022-09-23T18:48:49.126Z,12.90
2022-09-23T18:53:57.135Z,12.90
2022-09-23T18:58:59.011Z,13.00
2022-09-23T19:04:02.639Z,12.90
2022-09-23T19:09:06.896Z,12.90
2022-09-23T19:14:11.549Z,12.88
2022-09-23T19:19:13.898Z,12.80
2022-09-23T19:24:19.477Z,12.86
2022-09-23T19:29:22.907Z,12.90
2022-09-23T19:34:28.665Z,12.90
2022-09-23T19:39:31.450Z,12.80
2022-09-23T19:44:37.308Z,12.70
2022-09-23T19:49:39.299Z,12.70
2022-09-23T19:54:41.204Z,12.60
2022-09-23T19:59:43.352Z,12.60
2022-09-23T20:04:45.244Z,12.60
2022-09-23T20:09:47.005Z,12.60
2022-09-23T20:14:51.027Z,12.50
2022-09-23T20:19:52.911Z,12.48
2022-09-23T20:24:55.721Z,12.40
2022-09-23T20:29:59.064Z,12.30
2022-09-23T20:35:00.920Z,12.28
2022-09-23T20:40:03.796Z,12.20
2022-09-23T20:45:07.218Z,12.20
2022-09-23T20:50:10.932Z,12.10
2022-09-23T20:55:13.012Z,12.08
2022-09-23T21:00:15.521Z,12.00
2022-09-23T21:05:17.686Z,12.00
2022-09-23T21:10:22.430Z,12.04
2022-09-23T21:15:24.310Z,12.08
2022-09-23T21:20:26.392Z,12.10
2022-09-23T21:25:29.239Z,12.00
2022-09-23T21:30:31.923Z,11.98
2022-09-23T21:35:33.658Z,11.90
2022-09-23T21:40:54.099Z,11.82
2022-09-23T21:46:01.910Z,11.90
2022-09-23T21:51:11.298Z,11.90
2022-09-23T21:56:19.625Z,11.90
2022-09-23T22:01:34.625Z,11.80
2022-09-23T22:06:39.814Z,11.80
2022-09-23T22:12:01.252Z,11.70
2022-09-23T22:17:06.809Z,11.60
2022-09-23T22:22:13.967Z,11.60
2022-09-23T22:27:19.060Z,11.56
2022-09-23T22:32:39.920Z,11.50
2022-09-23T22:37:41.966Z,11.50
2022-09-23T22:42:44.769Z,11.34
2022-09-23T22:47:46.960Z,11.24
2022-09-23T22:52:49.234Z,11.20
2022-09-23T22:57:51.217Z,11.20
2022-09-23T23:02:54.233Z,11.20
2022-09-23T23:07:57.117Z,11.10
2022-09-23T23:12:58.795Z,11.08
2022-09-23T23:18:00.596Z,11.00
2022-09-23T23:23:03.167Z,10.92
2022-09-23T23:28:05.447Z,10.90
2022-09-23T23:33:07.252Z,10.90
2022-09-23T23:38:10.534Z,10.90
2022-09-23T23:43:12.306Z,10.90
2022-09-23T23:48:14.081Z,10.80
2022-09-23T23:53:15.856Z,10.70
2022-09-23T23:58:18.585Z,10.60
